createdAt,value
2019-02-17T00:02:30.030Z,14.63
2019-02-17T00:05:00.421Z,14.53
2019-02-17T00:07:31.450Z,14.57
2019-02-17T00:10:01.992Z,13.77
2019-02-17T00:12:32.456Z,14.37
2019-02-17T00:15:02.993Z,15.03
2019-02-17T00:17:33.520Z,14.97
2019-02-17T00:20:04.341Z,15.70
2019-02-17T00:22:34.906Z,16.00
2019-02-17T00:25:05.936Z,16.30
2019-02-17T00:27:36.231Z,15.27
2019-02-17T00:30:06.932Z,15.77
2019-02-17T00:32:37.337Z,16.00
2019-02-17T00:35:08.440Z,15.70
2019-02-17T00:37:40.591Z,16.27
2019-02-17T00:40:11.523Z,14.57
2019-02-17T00:42:42.051Z,14.87
2019-02-17T00:45:13.011Z,14.37
2019-02-17T00:47:43.839Z,15.30
2019-02-17T00:50:14.661Z,13.77
2019-02-17T00:52:45.364Z,13.93
2019-02-17T00:55:16.202Z,14.23
2019-02-17T00:57:46.760Z,14.17
2019-02-17T01:00:17.705Z,13.50
2019-02-17T01:02:48.296Z,14.30
2019-02-17T01:05:18.835Z,13.87
2019-02-17T01:07:49.256Z,13.67
2019-02-17T01:10:19.864Z,13.63
2019-02-17T01:12:50.270Z,13.13
2019-02-17T01:15:20.684Z,13.00
2019-02-17T01:17:51.138Z,13.33
2019-02-17T01:20:21.647Z,14.43
2019-02-17T01:22:52.396Z,13.07
2019-02-17T01:25:23.426Z,12.53
2019-02-17T01:27:54.303Z,12.53
2019-02-17T01:30:25.193Z,13.17
2019-02-17T01:32:55.673Z,13.40
2019-02-17T01:35:26.174Z,14.93
2019-02-17T01:37:58.316Z,13.53
2019-02-17T01:40:28.876Z,12.97
2019-02-17T01:42:59.442Z,12.70
2019-02-17T01:45:29.852Z,14.17
2019-02-17T01:48:00.222Z,14.97
2019-02-17T01:50:30.793Z,15.57
2019-02-17T01:53:01.462Z,13.57
2019-02-17T01:55:31.993Z,13.80
2019-02-17T01:58:02.525Z,13.50
2019-02-17T02:00:33.244Z,12.00
2019-02-17T02:03:03.733Z,11.63
2019-02-17T02:05:34.207Z,12.50
2019-02-17T02:08:04.701Z,11.30
2019-02-17T02:10:35.181Z,10.07
2019-02-17T02:13:05.777Z,11.70
2019-02-17T02:15:36.271Z,11.13
2019-02-17T02:18:06.982Z,13.27
2019-02-17T02:20:37.500Z,13.30
2019-02-17T02:23:07.992Z,12.47
2019-02-17T02:25:38.542Z,12.00
2019-02-17T02:28:10.659Z,12.63
2019-02-17T02:30:42.931Z,12.67
2019-02-17T02:33:15.506Z,12.73
2019-02-17T02:35:47.769Z,13.87
2019-02-17T02:38:20.040Z,11.87
2019-02-17T02:40:52.000Z,12.93
2019-02-17T02:43:24.060Z,12.97
2019-02-17T02:45:56.945Z,13.03
2019-02-17T02:48:29.424Z,12.47
2019-02-17T02:51:01.891Z,12.00
2019-02-17T02:53:34.159Z,12.43
2019-02-17T02:56:06.426Z,12.03
2019-02-17T02:58:38.698Z,12.40
2019-02-17T03:01:12.084Z,11.10
2019-02-17T03:03:45.981Z,12.27
2019-02-17T03:06:34.954Z,13.47
2019-02-17T03:09:07.942Z,11.50
2019-02-17T03:11:40.110Z,12.57
2019-02-17T03:14:12.372Z,12.43
2019-02-17T03:16:45.051Z,12.57
2019-02-17T03:19:17.224Z,12.03
2019-02-17T03:21:49.484Z,10.53
2019-02-17T03:24:22.070Z,11.60
2019-02-17T03:26:54.638Z,11.50
2019-02-17T03:29:27.012Z,9.63
2019-02-17T03:31:59.703Z,10.73
2019-02-17T03:34:32.058Z,10.23
2019-02-17T03:37:04.517Z,10.53
2019-02-17T03:39:36.798Z,11.07
2019-02-17T03:42:09.178Z,11.17
2019-02-17T03:44:41.640Z,11.97
2019-02-17T03:47:14.113Z,12.30
2019-02-17T03:49:46.378Z,13.27
2019-02-17T03:52:18.753Z,12.63
2019-02-17T03:54:50.920Z,12.80
2019-02-17T03:57:23.186Z,12.53
2019-02-17T03:59:55.662Z,11.87
2019-02-17T04:02:28.128Z,10.30
2019-02-17T04:04:59.988Z,11.30
2019-02-17T04:07:32.153Z,10.83
2019-02-17T04:10:04.628Z,10.37
2019-02-17T04:12:37.099Z,10.40
2019-02-17T04:15:09.474Z,10.87
2019-02-17T04:17:41.740Z,10.13
2019-02-17T04:20:14.212Z,10.27
2019-02-17T04:22:46.374Z,11.10
2019-02-17T04:25:18.650Z,10.17
2019-02-17T04:27:51.121Z,10.83
2019-02-17T04:30:29.433Z,11.93
2019-02-17T04:32:57.703Z,11.40
2019-02-17T04:35:29.868Z,12.80
2019-02-17T04:38:02.137Z,12.80
2019-02-17T04:40:34.097Z,15.47
2019-02-17T04:43:06.464Z,13.70
2019-02-17T04:45:38.632Z,14.80
2019-02-17T04:48:11.004Z,14.30
2019-02-17T04:50:43.888Z,15.30
2019-02-17T04:53:16.255Z,14.33
2019-02-17T04:55:48.420Z,13.73
2019-02-17T04:58:20.999Z,12.93
2019-02-17T05:00:53.690Z,13.03
2019-02-17T05:03:26.148Z,21.50
2019-02-17T05:05:58.420Z,20.97
2019-02-17T05:08:30.684Z,28.27
2019-02-17T05:11:02.750Z,34.73
2019-02-17T05:13:35.223Z,34.40
2019-02-17T05:16:07.499Z,37.37
2019-02-17T05:18:39.758Z,35.10
2019-02-17T05:21:12.334Z,25.23
2019-02-17T05:23:44.704Z,20.27
2019-02-17T05:26:16.880Z,14.97
2019-02-17T05:28:49.034Z,15.57
2019-02-17T05:31:21.408Z,16.40
2019-02-17T05:33:53.673Z,16.73
2019-02-17T05:36:25.948Z,15.67
2019-02-17T05:38:59.128Z,14.73
2019-02-17T05:41:31.395Z,15.03
2019-02-17T05:44:03.878Z,16.87
2019-02-17T05:46:36.655Z,18.77
2019-02-17T05:49:09.329Z,17.80
2019-02-17T05:51:42.119Z,17.50
2019-02-17T05:54:14.385Z,17.07
2019-02-17T05:56:46.646Z,17.83
2019-02-17T05:59:19.429Z,18.57
2019-02-17T06:01:52.109Z,17.97
2019-02-17T06:04:24.168Z,17.37
2019-02-17T06:06:56.437Z,16.73
2019-02-17T06:09:28.908Z,16.57
2019-02-17T06:12:00.978Z,17.30
2019-02-17T06:14:33.034Z,17.73
2019-02-17T06:17:05.509Z,19.03
2019-02-17T06:19:37.677Z,18.97
2019-02-17T06:22:10.146Z,18.23
2019-02-17T06:24:42.314Z,19.53
2019-02-17T06:27:14.376Z,18.77
2019-02-17T06:29:49.023Z,18.27
2019-02-17T06:32:20.755Z,19.27
2019-02-17T06:38:53.367Z,33.53
2019-02-17T06:45:25.510Z,43.20
2019-02-17T06:51:52.413Z,28.17
2019-02-17T06:57:04.242Z,24.43
2019-02-17T06:59:34.947Z,21.67
2019-02-17T07:02:05.498Z,22.00
2019-02-17T07:04:54.832Z,21.57
2019-02-17T07:07:25.462Z,22.10
2019-02-17T07:09:56.862Z,23.97
2019-02-17T07:12:28.338Z,29.27
2019-02-17T07:14:58.765Z,27.23
2019-02-17T07:17:29.175Z,23.70
2019-02-17T07:20:00.517Z,20.27
2019-02-17T07:22:31.270Z,23.33
2019-02-17T07:25:01.784Z,21.90
2019-02-17T07:27:32.618Z,34.67
2019-02-17T07:30:03.168Z,31.27
2019-02-17T07:32:33.680Z,25.63
2019-02-17T07:35:04.450Z,22.07
2019-02-17T07:37:34.946Z,21.00
2019-02-17T07:40:06.247Z,21.13
2019-02-17T07:42:36.838Z,20.07
2019-02-17T07:45:07.648Z,19.83
2019-02-17T07:47:38.306Z,19.77
2019-02-17T07:50:10.975Z,20.00
2019-02-17T07:52:41.708Z,19.30
2019-02-17T07:55:12.506Z,18.87
2019-02-17T07:57:43.226Z,18.80
2019-02-17T08:00:13.960Z,19.63
2019-02-17T08:02:44.602Z,18.90
2019-02-17T08:05:15.412Z,19.43
2019-02-17T08:07:45.975Z,18.57
2019-02-17T08:10:16.546Z,17.73
2019-02-17T08:12:47.118Z,19.63
2019-02-17T08:15:17.625Z,20.00
2019-02-17T08:17:48.244Z,19.30
2019-02-17T08:20:19.242Z,19.33
2019-02-17T08:22:49.806Z,21.83
2019-02-17T08:25:22.099Z,19.83
2019-02-17T08:27:52.761Z,20.00
2019-02-17T08:30:23.486Z,20.60
2019-02-17T08:32:54.058Z,21.07
2019-02-17T08:35:25.101Z,20.87
2019-02-17T08:37:55.640Z,22.03
2019-02-17T08:40:26.175Z,22.23
2019-02-17T08:42:56.938Z,21.13
2019-02-17T08:45:27.645Z,19.37
2019-02-17T08:47:59.005Z,20.53
2019-02-17T08:50:29.769Z,21.33
2019-02-17T08:53:00.258Z,21.23
2019-02-17T08:55:30.849Z,21.23
2019-02-17T08:58:01.499Z,22.53
2019-02-17T09:00:32.158Z,20.97
2019-02-17T09:03:02.736Z,21.40
2019-02-17T09:05:43.627Z,21.17
2019-02-17T09:08:05.600Z,20.17
2019-02-17T09:10:36.046Z,20.00
2019-02-17T09:13:06.739Z,19.43
2019-02-17T09:15:37.367Z,22.37
2019-02-17T09:18:07.863Z,22.27
2019-02-17T09:20:39.471Z,21.47
2019-02-17T09:23:10.042Z,22.50
2019-02-17T09:25:40.739Z,22.80
2019-02-17T09:28:11.270Z,22.50
2019-02-17T09:30:41.744Z,23.57
2019-02-17T09:33:12.807Z,22.20
2019-02-17T09:35:43.384Z,21.00
2019-02-17T09:38:14.416Z,20.33
2019-02-17T09:40:44.978Z,22.20
2019-02-17T09:43:15.663Z,20.57
2019-02-17T09:45:46.415Z,18.77
2019-02-17T09:48:17.049Z,18.87
2019-02-17T09:50:47.663Z,19.53
2019-02-17T09:53:18.357Z,20.03
2019-02-17T09:55:49.421Z,19.37
2019-02-17T09:58:20.002Z,19.20
2019-02-17T10:00:51.598Z,20.10
2019-02-17T10:03:23.132Z,19.37
2019-02-17T10:05:53.893Z,22.23
2019-02-17T10:08:24.378Z,22.63
2019-02-17T10:10:55.077Z,22.67
2019-02-17T10:13:25.539Z,24.17
2019-02-17T10:15:55.985Z,22.17
2019-02-17T10:18:26.544Z,22.87
2019-02-17T10:20:57.238Z,22.03
2019-02-17T10:23:27.778Z,23.03
2019-02-17T10:25:58.478Z,22.27
2019-02-17T10:28:41.848Z,23.20
2019-02-17T10:31:04.378Z,22.97
2019-02-17T10:33:34.923Z,22.00
2019-02-17T10:36:05.679Z,23.60
2019-02-17T10:38:36.406Z,22.13
2019-02-17T10:41:06.876Z,23.13
2019-02-17T10:43:37.456Z,23.77
2019-02-17T10:46:08.179Z,22.23
2019-02-17T10:48:38.806Z,21.20
2019-02-17T10:51:09.498Z,22.47
2019-02-17T10:53:40.271Z,21.13
2019-02-17T10:56:11.079Z,20.47
2019-02-17T10:58:41.966Z,19.93
2019-02-17T11:01:12.829Z,19.33
2019-02-17T11:04:06.463Z,18.47
2019-02-17T11:06:37.200Z,17.60
2019-02-17T11:09:21.464Z,18.20
2019-02-17T11:11:53.132Z,18.63
2019-02-17T11:14:23.958Z,17.97
2019-02-17T11:16:54.786Z,16.80
2019-02-17T11:19:25.463Z,17.20
2019-02-17T11:21:56.238Z,17.40
2019-02-17T11:24:27.023Z,19.20
2019-02-17T11:26:57.775Z,17.97
2019-02-17T11:29:28.565Z,18.10
2019-02-17T11:31:59.282Z,17.80
2019-02-17T11:34:29.960Z,16.70
2019-02-17T11:37:00.582Z,17.30
2019-02-17T11:39:31.232Z,18.73
2019-02-17T11:42:01.897Z,18.13
2019-02-17T11:44:32.556Z,18.00
2019-02-17T11:47:03.275Z,18.57
2019-02-17T11:49:33.967Z,17.67
2019-02-17T11:52:04.659Z,19.77
2019-02-17T11:54:35.398Z,19.53
2019-02-17T11:57:06.581Z,19.10
2019-02-17T11:59:37.243Z,19.80
2019-02-17T12:02:08.368Z,19.67
2019-02-17T12:04:39.142Z,20.97
2019-02-17T12:07:09.801Z,18.13
2019-02-17T12:09:40.571Z,19.60
2019-02-17T12:12:13.617Z,18.53
2019-02-17T12:14:43.619Z,17.33
2019-02-17T12:17:14.243Z,18.07
2019-02-17T12:19:44.758Z,20.23
2019-02-17T12:22:34.255Z,17.93
2019-02-17T12:25:12.356Z,17.73
2019-02-17T12:27:56.650Z,18.13
2019-02-17T12:30:29.478Z,17.60
2019-02-17T12:33:00.203Z,16.87
2019-02-17T12:35:30.967Z,17.20
2019-02-17T12:38:01.784Z,17.63
2019-02-17T12:40:32.484Z,16.53
2019-02-17T12:43:03.198Z,16.10
2019-02-17T12:45:33.800Z,16.27
2019-02-17T12:48:04.726Z,16.90
2019-02-17T12:50:35.419Z,15.57
2019-02-17T12:53:06.208Z,16.23
2019-02-17T12:55:36.913Z,16.70
2019-02-17T12:58:07.656Z,16.83
2019-02-17T13:00:38.425Z,16.03
2019-02-17T13:03:09.085Z,16.87
2019-02-17T13:05:39.801Z,16.57
2019-02-17T13:08:10.290Z,16.70
2019-02-17T13:10:41.098Z,17.33
2019-02-17T13:13:11.841Z,16.37
2019-02-17T13:15:42.600Z,16.17
2019-02-17T13:18:13.318Z,15.47
2019-02-17T13:20:44.108Z,16.23
2019-02-17T13:23:14.824Z,15.43
2019-02-17T13:25:45.576Z,15.07
2019-02-17T13:28:16.239Z,14.27
2019-02-17T13:30:47.037Z,15.00
2019-02-17T13:33:17.962Z,15.10
2019-02-17T13:35:48.703Z,14.93
2019-02-17T13:38:19.287Z,14.93
2019-02-17T13:40:50.484Z,15.20
2019-02-17T13:43:21.048Z,14.17
2019-02-17T13:45:51.723Z,14.53
2019-02-17T13:48:22.400Z,15.07
2019-02-17T13:50:53.155Z,14.80
2019-02-17T13:53:23.963Z,15.13
2019-02-17T13:55:54.599Z,14.40
2019-02-17T13:58:25.159Z,14.87
2019-02-17T14:00:55.818Z,14.57
2019-02-17T14:03:26.518Z,15.20
2019-02-17T14:05:57.079Z,14.97
2019-02-17T14:08:27.705Z,14.20
2019-02-17T14:10:58.417Z,13.83
2019-02-17T14:13:28.988Z,15.50
2019-02-17T14:15:59.584Z,14.60
2019-02-17T14:18:30.246Z,14.07
2019-02-17T14:21:00.796Z,14.63
2019-02-17T14:23:31.363Z,14.10
2019-02-17T14:26:02.324Z,13.37
2019-02-17T14:28:33.046Z,14.77
2019-02-17T14:31:03.962Z,15.30
2019-02-17T14:33:34.619Z,15.47
2019-02-17T14:36:05.438Z,14.57
2019-02-17T14:38:36.140Z,13.33
2019-02-17T14:41:06.825Z,15.53
2019-02-17T14:43:37.839Z,14.17
2019-02-17T14:46:09.703Z,14.63
2019-02-17T14:48:41.394Z,14.60
2019-02-17T14:51:12.187Z,13.23
2019-02-17T14:53:42.669Z,13.97
2019-02-17T14:56:13.338Z,14.07
2019-02-17T14:58:44.160Z,13.93
2019-02-17T15:01:14.944Z,14.77
2019-02-17T15:03:45.399Z,13.93
2019-02-17T15:06:15.955Z,14.00
2019-02-17T15:08:46.567Z,13.70
2019-02-17T15:11:17.277Z,13.20
2019-02-17T15:13:47.821Z,14.70
2019-02-17T15:16:19.678Z,13.60
2019-02-17T15:18:50.488Z,14.77
2019-02-17T15:21:21.195Z,14.47
2019-02-17T15:23:51.854Z,13.83
2019-02-17T15:26:23.804Z,14.80
2019-02-17T15:28:55.790Z,16.13
2019-02-17T15:31:26.443Z,17.07
2019-02-17T15:33:59.463Z,19.70
2019-02-17T15:36:30.143Z,27.30
2019-02-17T15:39:00.830Z,32.77
2019-02-17T15:41:31.333Z,36.63
2019-02-17T15:44:01.928Z,37.97
2019-02-17T15:46:34.644Z,41.67
2019-02-17T15:49:06.783Z,42.47
2019-02-17T15:51:37.630Z,45.53
2019-02-17T15:54:08.429Z,41.00
2019-02-17T15:56:41.650Z,37.60
2019-02-17T15:59:13.778Z,37.27
2019-02-17T16:01:48.143Z,39.63
2019-02-17T16:04:27.919Z,40.97
2019-02-17T16:06:51.525Z,42.53
2019-02-17T16:09:22.370Z,40.63
2019-02-17T16:11:53.105Z,37.80
2019-02-17T16:14:25.061Z,36.17
2019-02-17T16:16:56.213Z,28.67
2019-02-17T16:19:27.809Z,25.40
2019-02-17T16:22:01.554Z,24.90
2019-02-17T16:24:35.976Z,26.33
2019-02-17T16:27:08.852Z,25.93
2019-02-17T16:29:39.500Z,24.17
2019-02-17T16:32:13.503Z,23.23
2019-02-17T16:34:44.069Z,21.57
2019-02-17T16:37:17.069Z,22.07
2019-02-17T16:39:47.858Z,23.47
2019-02-17T16:42:20.318Z,21.97
2019-02-17T16:44:52.345Z,19.47
2019-02-17T16:47:24.423Z,18.00
2019-02-17T16:49:57.905Z,18.47
2019-02-17T16:52:28.643Z,19.27
2019-02-17T16:55:02.469Z,24.10
2019-02-17T16:57:34.362Z,28.30
2019-02-17T17:00:06.540Z,27.40
2019-02-17T17:02:40.810Z,24.90
2019-02-17T17:05:14.365Z,28.50
2019-02-17T17:07:50.478Z,22.53
2019-02-17T17:10:23.131Z,24.00
2019-02-17T17:12:55.457Z,25.40
2019-02-17T17:15:29.851Z,26.90
2019-02-17T17:18:04.140Z,30.00
2019-02-17T17:20:34.990Z,29.67
2019-02-17T17:23:13.964Z,30.67
2019-02-17T17:25:48.015Z,30.73
2019-02-17T17:28:27.739Z,26.97
2019-02-17T17:31:02.935Z,28.20
2019-02-17T17:33:35.449Z,25.13
2019-02-17T17:36:09.298Z,24.70
2019-02-17T17:38:40.119Z,23.27
2019-02-17T17:41:11.395Z,22.40
2019-02-17T17:43:45.638Z,22.47
2019-02-17T17:46:18.269Z,23.37
2019-02-17T17:48:55.552Z,22.23
2019-02-17T17:51:29.091Z,22.27
2019-02-17T17:54:05.982Z,22.40
2019-02-17T17:56:42.221Z,21.93
2019-02-17T17:59:15.426Z,22.90
2019-02-17T18:01:52.491Z,23.17
2019-02-17T18:04:27.059Z,24.17
2019-02-17T18:07:05.827Z,22.20
2019-02-17T18:09:36.922Z,24.23
2019-02-17T18:12:11.250Z,26.13
2019-02-17T18:14:48.158Z,25.63
2019-02-17T18:17:20.238Z,27.47
2019-02-17T18:19:51.016Z,27.77
2019-02-17T18:22:26.289Z,26.90
2019-02-17T18:25:00.510Z,25.83
2019-02-17T18:27:34.576Z,25.97
2019-02-17T18:30:06.831Z,26.00
2019-02-17T18:32:41.253Z,25.83
2019-02-17T18:35:19.749Z,25.23
2019-02-17T18:37:52.784Z,24.70
2019-02-17T18:40:23.614Z,24.90
2019-02-17T18:42:56.507Z,23.97
2019-02-17T18:45:27.729Z,25.47
2019-02-17T18:48:00.779Z,24.07
2019-02-17T18:50:34.342Z,25.13
2019-02-17T18:53:06.143Z,26.47
2019-02-17T18:55:40.430Z,28.60
2019-02-17T18:58:13.725Z,27.30
2019-02-17T19:00:48.075Z,28.07
2019-02-17T19:03:19.084Z,30.20
2019-02-17T19:05:53.560Z,30.27
2019-02-17T19:08:30.294Z,31.30
2019-02-17T19:11:02.650Z,31.40
2019-02-17T19:13:37.798Z,30.17
2019-02-17T19:16:08.569Z,28.23
2019-02-17T19:18:43.289Z,27.97
2019-02-17T19:21:16.538Z,28.37
2019-02-17T19:23:48.772Z,28.03
2019-02-17T19:26:25.214Z,28.20
2019-02-17T19:28:57.092Z,27.60
2019-02-17T19:31:41.526Z,27.27
2019-02-17T19:34:14.358Z,27.73
2019-02-17T19:36:49.370Z,26.57
2019-02-17T19:39:21.659Z,28.13
2019-02-17T19:41:57.119Z,28.13
2019-02-17T19:44:34.052Z,27.83
2019-02-17T19:47:04.424Z,26.77
2019-02-17T19:49:36.260Z,26.43
2019-02-17T19:52:18.821Z,27.13
2019-02-17T19:54:54.990Z,25.53
2019-02-17T19:57:26.841Z,27.63
2019-02-17T20:00:10.727Z,26.40
2019-02-17T20:02:51.110Z,25.73
2019-02-17T20:05:28.083Z,26.20
2019-02-17T20:08:03.715Z,24.73
2019-02-17T20:10:39.632Z,24.40
2019-02-17T20:13:14.582Z,24.87
2019-02-17T20:15:50.969Z,24.37
2019-02-17T20:18:25.090Z,22.33
2019-02-17T20:21:01.450Z,23.77
2019-02-17T20:23:33.756Z,23.20
2019-02-17T20:26:06.718Z,24.43
2019-02-17T20:28:43.993Z,24.17
2019-02-17T20:31:18.563Z,24.30
2019-02-17T20:33:58.983Z,24.13
2019-02-17T20:36:36.544Z,23.10
2019-02-17T20:39:14.950Z,23.50
2019-02-17T20:41:47.485Z,24.37
2019-02-17T20:44:19.259Z,26.87
2019-02-17T20:46:52.607Z,25.87
2019-02-17T20:49:29.015Z,24.37
2019-02-17T20:52:01.204Z,25.13
2019-02-17T20:54:34.338Z,23.60
2019-02-17T20:57:09.664Z,24.27
2019-02-17T20:59:46.928Z,23.50
2019-02-17T21:02:17.693Z,22.60
2019-02-17T21:04:49.718Z,21.87
2019-02-17T21:07:21.640Z,23.17
2019-02-17T21:09:52.490Z,23.63
2019-02-17T21:12:25.245Z,23.97
2019-02-17T21:14:55.875Z,23.10
2019-02-17T21:17:26.600Z,23.13
2019-02-17T21:20:03.589Z,23.70
2019-02-17T21:22:35.708Z,24.97
2019-02-17T21:25:07.323Z,24.77
2019-02-17T21:27:41.261Z,25.77
2019-02-17T21:30:13.010Z,25.30
2019-02-17T21:32:43.835Z,25.90
2019-02-17T21:35:15.223Z,27.03
2019-02-17T21:37:45.956Z,27.03
2019-02-17T21:40:16.647Z,27.77
2019-02-17T21:42:47.561Z,26.40
2019-02-17T21:45:18.328Z,26.50
2019-02-17T21:47:49.039Z,25.77
2019-02-17T21:50:19.926Z,25.27
2019-02-17T21:52:50.821Z,25.40
2019-02-17T21:55:21.966Z,24.77
2019-02-17T21:57:53.124Z,24.23
2019-02-17T22:00:23.743Z,26.50
2019-02-17T22:02:54.364Z,26.03
2019-02-17T22:05:24.844Z,27.07
2019-02-17T22:07:55.921Z,29.23
2019-02-17T22:10:26.546Z,28.03
2019-02-17T22:12:57.095Z,28.43
2019-02-17T22:15:27.822Z,30.40
2019-02-17T22:17:58.967Z,31.20
2019-02-17T22:20:29.603Z,33.03
2019-02-17T22:23:00.346Z,33.43
2019-02-17T22:25:31.098Z,35.20
2019-02-17T22:28:01.844Z,35.87
2019-02-17T22:30:32.514Z,39.43
2019-02-17T22:33:03.203Z,38.40
2019-02-17T22:35:33.887Z,38.03
2019-02-17T22:38:04.606Z,41.60
2019-02-17T22:40:35.498Z,43.80
2019-02-17T22:43:06.194Z,42.40
2019-02-17T22:45:36.986Z,42.63
2019-02-17T22:48:07.730Z,43.53
2019-02-17T22:50:38.521Z,41.50
2019-02-17T22:53:09.107Z,41.70
2019-02-17T22:55:39.766Z,43.10
2019-02-17T22:58:10.746Z,44.03
2019-02-17T23:01:00.458Z,45.13
2019-02-17T23:03:32.051Z,45.63
2019-02-17T23:06:03.844Z,46.40
2019-02-17T23:08:34.478Z,47.27
2019-02-17T23:11:05.238Z,48.53
2019-02-17T23:13:35.919Z,47.20
2019-02-17T23:16:06.615Z,49.30
2019-02-17T23:18:37.176Z,47.37
2019-02-17T23:21:07.715Z,48.43
2019-02-17T23:23:38.508Z,48.80
2019-02-17T23:26:09.061Z,49.07
2019-02-17T23:28:39.978Z,46.47
2019-02-17T23:31:10.658Z,51.17
2019-02-17T23:33:41.126Z,57.10
2019-02-17T23:36:11.675Z,57.80
2019-02-17T23:38:42.288Z,52.17
2019-02-17T23:41:12.866Z,51.87
2019-02-17T23:43:43.379Z,51.57
2019-02-17T23:46:13.987Z,49.93
2019-02-17T23:48:44.718Z,51.17
2019-02-17T23:51:15.466Z,51.07
2019-02-17T23:53:46.146Z,49.60
2019-02-17T23:56:17.206Z,52.27
2019-02-17T23:58:47.758Z,51.00
